createdAt,value
2019-04-01T00:04:14.806Z,5.53
2019-04-01T00:09:38.938Z,5.53
2019-04-01T00:15:03.479Z,4.77
2019-04-01T00:20:28.451Z,4.83
2019-04-01T00:25:52.918Z,5.47
2019-04-01T00:31:16.654Z,4.90
2019-04-01T00:36:41.023Z,5.03
2019-04-01T00:42:24.776Z,4.90
2019-04-01T00:47:49.571Z,4.87
2019-04-01T00:53:17.771Z,4.63
2019-04-01T00:58:40.159Z,4.63
2019-04-01T01:04:05.018Z,4.40
2019-04-01T01:09:29.338Z,4.70
2019-04-01T01:14:53.679Z,4.93
2019-04-01T01:20:17.948Z,4.70
2019-04-01T01:25:42.094Z,4.47
2019-04-01T01:31:06.361Z,4.13
2019-04-01T01:36:31.083Z,4.27
2019-04-01T01:41:55.741Z,4.00
2019-04-01T01:47:20.127Z,4.43
2019-04-01T01:52:44.807Z,4.40
2019-04-01T01:58:09.120Z,4.47
2019-04-01T02:03:33.505Z,4.57
2019-04-01T02:08:57.646Z,4.57
2019-04-01T02:14:22.051Z,4.40
2019-04-01T02:19:46.854Z,4.50
2019-04-01T02:25:11.113Z,4.70
2019-04-01T02:30:35.267Z,4.80
2019-04-01T02:36:00.029Z,4.30
2019-04-01T02:41:24.763Z,4.73
2019-04-01T02:46:49.157Z,4.97
2019-04-01T02:52:13.292Z,4.57
2019-04-01T02:57:37.807Z,4.87
2019-04-01T03:03:02.477Z,4.20
2019-04-01T03:08:27.158Z,4.73
2019-04-01T03:13:51.304Z,4.80
2019-04-01T03:19:15.937Z,4.63
2019-04-01T03:24:40.667Z,5.30
2019-04-01T03:30:04.911Z,5.10
2019-04-01T03:35:29.536Z,5.43
2019-04-01T03:40:54.340Z,5.40
2019-04-01T03:46:18.770Z,5.07
2019-04-01T03:51:42.812Z,5.10
2019-04-01T03:57:07.156Z,4.77
2019-04-01T04:02:31.489Z,5.00
2019-04-01T04:07:55.894Z,5.53
2019-04-01T04:13:20.328Z,5.43
2019-04-01T04:18:44.819Z,5.33
2019-04-01T04:24:09.006Z,5.83
2019-04-01T04:29:33.560Z,5.50
2019-04-01T04:34:57.918Z,6.73
2019-04-01T04:40:22.626Z,5.87
2019-04-01T04:45:47.192Z,6.07
2019-04-01T04:51:11.882Z,4.87
2019-04-01T04:56:37.189Z,5.53
2019-04-01T05:02:01.395Z,6.03
2019-04-01T05:07:25.690Z,5.53
2019-04-01T05:12:49.914Z,6.00
2019-04-01T05:18:14.341Z,5.37
2019-04-01T05:23:39.906Z,5.70
2019-04-01T05:29:04.772Z,5.00
2019-04-01T05:34:30.582Z,5.67
2019-04-01T05:39:55.232Z,6.80
2019-04-01T05:45:19.337Z,5.77
2019-04-01T05:50:43.759Z,7.00
2019-04-01T05:56:08.783Z,5.83
2019-04-01T06:01:37.272Z,5.70
2019-04-01T06:07:01.311Z,7.17
2019-04-01T06:12:25.440Z,5.63
2019-04-01T06:17:49.482Z,6.10
2019-04-01T06:23:13.758Z,7.87
2019-04-01T06:28:37.864Z,6.53
2019-04-01T06:34:03.133Z,6.10
2019-04-01T06:39:27.791Z,6.83
2019-04-01T06:44:52.289Z,6.27
2019-04-01T06:50:16.448Z,6.23
2019-04-01T06:55:41.166Z,7.03
2019-04-01T07:01:05.823Z,9.97
2019-04-01T07:06:30.249Z,7.40
2019-04-01T07:11:54.976Z,6.70
2019-04-01T07:17:18.963Z,6.10
2019-04-01T07:22:43.207Z,5.33
2019-04-01T07:28:08.336Z,6.57
2019-04-01T07:33:32.641Z,5.97
2019-04-01T07:38:57.157Z,5.87
2019-04-01T07:44:21.248Z,5.77
2019-04-01T07:49:45.031Z,8.27
2019-04-01T07:55:09.464Z,5.73
2019-04-01T08:00:33.853Z,6.13
2019-04-01T08:05:58.233Z,5.70
2019-04-01T08:11:22.231Z,7.53
2019-04-01T08:16:46.509Z,7.53
2019-04-01T08:22:11.174Z,6.60
2019-04-01T08:27:35.417Z,6.47
2019-04-01T08:32:59.354Z,5.93
2019-04-01T08:38:23.767Z,5.60
2019-04-01T08:43:47.853Z,6.33
2019-04-01T08:49:11.802Z,5.70
2019-04-01T08:54:36.162Z,5.77
2019-04-01T09:00:00.711Z,6.53
2019-04-01T09:05:24.686Z,6.33
2019-04-01T09:10:49.859Z,5.47
2019-04-01T09:16:14.091Z,5.73
2019-04-01T09:21:38.762Z,5.80
2019-04-01T09:27:03.637Z,5.40
2019-04-01T09:32:28.573Z,7.40
2019-04-01T09:37:53.317Z,5.40
2019-04-01T09:43:17.559Z,6.20
2019-04-01T09:48:42.315Z,5.23
2019-04-01T09:54:06.701Z,5.80
2019-04-01T09:59:31.493Z,5.93
2019-04-01T10:04:55.953Z,4.97
2019-04-01T10:10:20.363Z,5.80
2019-04-01T10:15:44.719Z,4.67
2019-04-01T10:21:09.035Z,7.60
2019-04-01T10:26:33.708Z,5.90
2019-04-01T10:31:58.493Z,4.37
2019-04-01T10:37:22.903Z,6.80
2019-04-01T10:42:46.559Z,5.77
2019-04-01T10:48:10.944Z,5.23
2019-04-01T10:53:36.073Z,6.10
2019-04-01T10:59:00.595Z,4.40
2019-04-01T11:04:24.913Z,5.13
2019-04-01T11:09:49.388Z,5.20
2019-04-01T11:15:15.698Z,4.40
2019-04-01T11:20:40.658Z,4.47
2019-04-01T11:26:05.446Z,5.40
2019-04-01T11:31:29.894Z,5.20
2019-04-01T11:36:54.587Z,4.43
2019-04-01T11:42:19.434Z,3.80
2019-04-01T11:47:44.064Z,4.80
2019-04-01T11:53:09.159Z,5.43
2019-04-01T11:58:33.643Z,5.20
2019-04-01T12:03:57.715Z,4.70
2019-04-01T12:09:22.232Z,5.10
2019-04-01T12:14:47.265Z,4.70
2019-04-01T12:20:11.666Z,5.00
2019-04-01T12:25:36.662Z,4.10
2019-04-01T12:31:00.822Z,4.23
2019-04-01T12:36:25.381Z,4.97
2019-04-01T12:41:49.986Z,4.43
2019-04-01T12:47:14.909Z,4.47
2019-04-01T12:52:39.477Z,4.43
2019-04-01T12:58:04.059Z,4.97
2019-04-01T13:03:28.302Z,4.43
2019-04-01T13:08:52.907Z,4.67
2019-04-01T13:14:18.223Z,4.73
2019-04-01T13:19:41.982Z,5.57
2019-04-01T13:25:06.522Z,5.03
2019-04-01T13:30:31.154Z,5.07
2019-04-01T13:35:56.249Z,5.23
2019-04-01T13:41:20.688Z,5.30
2019-04-01T13:46:48.371Z,5.43
2019-04-01T13:52:11.306Z,5.27
2019-04-01T13:57:36.135Z,5.73
2019-04-01T14:03:00.795Z,4.93
2019-04-01T14:08:25.550Z,4.97
2019-04-01T14:13:49.694Z,5.20
2019-04-01T14:19:14.255Z,4.30
2019-04-01T14:24:38.538Z,6.83
2019-04-01T14:30:03.249Z,5.60
2019-04-01T14:35:27.708Z,4.43
2019-04-01T14:40:52.424Z,4.57
2019-04-01T14:46:16.898Z,4.23
2019-04-01T14:51:41.843Z,4.70
2019-04-01T14:57:07.371Z,4.20
2019-04-01T15:02:31.876Z,4.20
2019-04-01T15:07:55.875Z,6.03
2019-04-01T15:13:20.487Z,4.03
2019-04-01T15:18:45.541Z,4.00
2019-04-01T15:24:09.995Z,4.47
2019-04-01T15:29:34.539Z,3.70
2019-04-01T15:34:59.588Z,3.90
2019-04-01T15:40:24.304Z,4.27
2019-04-01T15:45:48.878Z,4.13
2019-04-01T15:51:12.906Z,4.23
2019-04-01T15:56:41.436Z,5.10
2019-04-01T16:02:03.569Z,7.27
2019-04-01T16:07:28.139Z,3.97
2019-04-01T16:12:53.670Z,3.97
2019-04-01T16:18:18.613Z,4.13
2019-04-01T16:23:43.777Z,3.47
2019-04-01T16:29:08.399Z,3.90
2019-04-01T16:34:34.705Z,3.70
2019-04-01T16:39:59.420Z,4.23
2019-04-01T16:45:23.417Z,3.90
2019-04-01T16:50:47.882Z,3.60
2019-04-01T16:56:11.919Z,5.13
2019-04-01T17:01:36.669Z,6.47
2019-04-01T17:07:01.172Z,3.83
2019-04-01T17:12:26.096Z,3.77
2019-04-01T17:17:50.315Z,4.30
2019-04-01T17:23:14.614Z,4.27
2019-04-01T17:28:39.231Z,5.20
2019-04-01T17:34:03.768Z,5.13
2019-04-01T17:39:28.535Z,4.70
2019-04-01T17:44:56.970Z,5.63
2019-04-01T17:50:02.568Z,4.80
2019-04-01T17:55:10.682Z,4.43
2019-04-01T18:00:22.232Z,4.30
2019-04-01T18:05:29.663Z,4.83
2019-04-01T18:10:36.739Z,5.43
2019-04-01T18:15:45.224Z,5.07
2019-04-01T18:20:53.775Z,5.50
2019-04-01T18:25:59.836Z,5.10
2019-04-01T18:31:08.648Z,5.10
2019-04-01T18:36:14.595Z,5.80
2019-04-01T18:41:22.214Z,8.40
2019-04-01T18:46:29.115Z,5.07
2019-04-01T18:51:36.724Z,6.57
2019-04-01T18:56:43.280Z,5.20
2019-04-01T19:01:51.387Z,6.63
2019-04-01T19:06:57.623Z,6.37
2019-04-01T19:12:04.717Z,6.83
2019-04-01T19:17:14.103Z,6.70
2019-04-01T19:22:21.808Z,7.10
2019-04-01T19:27:29.200Z,7.80
2019-04-01T19:32:38.153Z,7.60
2019-04-01T19:37:45.591Z,8.43
2019-04-01T19:42:53.812Z,6.80
2019-04-01T19:48:00.009Z,6.47
2019-04-01T19:53:07.466Z,7.10
2019-04-01T19:58:13.753Z,7.50
2019-04-01T20:03:19.632Z,8.20
2019-04-01T20:08:27.315Z,8.03
2019-04-01T20:13:33.280Z,7.23
2019-04-01T20:18:39.925Z,7.40
2019-04-01T20:23:47.566Z,7.73
2019-04-01T20:28:53.721Z,7.40
2019-04-01T20:34:04.193Z,7.83
2019-04-01T20:39:10.963Z,8.00
2019-04-01T20:44:18.006Z,8.13
2019-04-01T20:49:24.363Z,7.53
2019-04-01T20:54:32.448Z,7.00
2019-04-01T20:59:38.373Z,7.43
2019-04-01T21:04:44.649Z,7.97
2019-04-01T21:09:52.399Z,7.70
2019-04-01T21:15:01.214Z,7.77
2019-04-01T21:20:09.220Z,8.57
2019-04-01T21:25:17.121Z,8.00
2019-04-01T21:30:24.500Z,9.07
2019-04-01T21:35:32.267Z,8.50
2019-04-01T21:40:40.251Z,8.83
2019-04-01T21:45:47.982Z,8.53
2019-04-01T21:50:54.128Z,8.63
2019-04-01T21:56:01.771Z,9.70
2019-04-01T22:01:09.238Z,9.07
2019-04-01T22:06:16.670Z,8.73
2019-04-01T22:11:24.349Z,8.33
2019-04-01T22:16:32.079Z,8.00
2019-04-01T22:21:40.377Z,7.57
2019-04-01T22:26:48.422Z,8.10
2019-04-01T22:31:54.768Z,7.90
2019-04-01T22:37:02.559Z,7.43
2019-04-01T22:42:10.451Z,7.60
2019-04-01T22:47:16.978Z,7.40
2019-04-01T22:52:24.187Z,8.20
2019-04-01T22:57:31.937Z,8.13
2019-04-01T23:02:37.950Z,8.27
2019-04-01T23:07:44.519Z,8.27
2019-04-01T23:12:52.213Z,9.13
2019-04-01T23:17:59.775Z,8.63
2019-04-01T23:23:07.445Z,7.97
2019-04-01T23:28:13.402Z,8.43
2019-04-01T23:33:19.996Z,9.33
2019-04-01T23:38:27.204Z,8.90
2019-04-01T23:43:33.365Z,8.80
2019-04-01T23:48:42.126Z,8.50
2019-04-01T23:53:50.287Z,7.97
2019-04-01T23:58:58.175Z,7.93
